Huvudsida
METAR-TAF:

METAR-TAF

Flygplatser :

Alta flygplats

Alta, Norge

latitud: 69-59N, longitud: 023-22E, höjd: 0 m

Aktuellt väderrapport

Denna rapport gjordes för 35 minuter sedan, klockan 05:50 UTC
Vind 2 kt varierande vindriktning
Temperatur 1°C
Fuktighet 69%
Tryck 1013 hPa
Sikt 10 km eller mer
Spridda moln på en höjd av 2100 ft
Brutna moln på en höjd av 4000 ft

METAR: ENAT 240550Z VRB02KT 9999 SCT021 BKN040 01/M04 Q1013 RMK WIND 700FT 18007KT

Tid: 08:25 (06:25 UTC)

Väderprognos

Denna rapport gjordes för 1 timme och 25 minuter sedan, klockan 05:00 UTC
Prognos gäller från 24 kl. 06 UTC till 24 kl. 15 UTC
Vind 8 kt från syd/sydost
Sikt 10 km eller mer
Spridda moln på en höjd av 2000 ft

TAF: ENAT 240500Z 2406/2415 16008KT 9999 SCT020

Aktuella väderrapporter och prognoser från 4000 flygplatser (METAR- och TAF-rapporter).

De tillgängliga stationerna syns som gula och röda prickar på kartan.

För musen över prickarna för att se namnen på stationerna.

Klicka sedan för att få väderrapporter och prognoser.

För att ändra kartan: Klicka på de gröna knapparna med ett svart kors på för att zooma in; den gröna knappen med ett streck på för att zooma ut; eller på de gröna pilarna för angränsande kartor.


METAR-TAF: